createdAt,value
2018-12-20T00:02:12.045Z,0.63
2018-12-20T00:04:40.295Z,0.69
2018-12-20T00:07:08.648Z,0.71
2018-12-20T00:09:37.068Z,0.70
2018-12-20T00:12:05.415Z,0.68
2018-12-20T00:14:33.760Z,0.70
2018-12-20T00:17:07.868Z,0.65
2018-12-20T00:19:36.208Z,0.62
2018-12-20T00:22:04.555Z,0.66
2018-12-20T00:24:32.916Z,0.68
2018-12-20T00:27:01.413Z,0.63
2018-12-20T00:29:29.807Z,0.61
2018-12-20T00:31:57.897Z,0.57
2018-12-20T00:34:26.609Z,0.55
2018-12-20T00:36:54.633Z,0.56
2018-12-20T00:39:22.940Z,0.57
2018-12-20T00:41:51.248Z,0.57
2018-12-20T00:44:19.656Z,0.57
2018-12-20T00:46:47.902Z,0.58
2018-12-20T00:49:16.237Z,0.57
2018-12-20T00:51:44.563Z,0.52
2018-12-20T00:54:13.332Z,0.52
2018-12-20T00:56:41.674Z,0.57
2018-12-20T00:59:10.371Z,0.57
2018-12-20T01:01:38.874Z,0.57
2018-12-20T01:04:07.047Z,0.58
2018-12-20T01:06:35.354Z,0.56
2018-12-20T01:09:03.739Z,0.52
2018-12-20T01:11:32.008Z,0.45
2018-12-20T01:14:00.339Z,0.41
2018-12-20T01:16:28.876Z,0.41
2018-12-20T01:18:57.145Z,0.44
2018-12-20T01:21:25.611Z,0.44
2018-12-20T01:23:53.743Z,0.39
2018-12-20T01:26:22.093Z,0.38
2018-12-20T01:28:50.618Z,0.43
2018-12-20T01:31:18.817Z,0.44
2018-12-20T01:33:47.043Z,0.46
2018-12-20T01:36:15.413Z,0.44
2018-12-20T01:38:43.787Z,0.44
2018-12-20T01:41:12.069Z,0.42
2018-12-20T01:43:40.315Z,0.37
2018-12-20T01:46:09.098Z,0.37
2018-12-20T01:48:37.270Z,0.40
2018-12-20T01:51:05.610Z,0.44
2018-12-20T01:53:33.946Z,0.48
2018-12-20T01:56:02.349Z,0.49
2018-12-20T01:58:30.617Z,0.48
2018-12-20T02:00:58.994Z,0.52
2018-12-20T02:03:27.369Z,0.51
2018-12-20T02:05:55.614Z,0.52
2018-12-20T02:08:24.015Z,0.50
2018-12-20T02:10:52.273Z,0.47
2018-12-20T02:13:20.747Z,0.44
2018-12-20T02:15:48.961Z,0.47
2018-12-20T02:18:17.259Z,0.49
2018-12-20T02:20:45.757Z,0.49
2018-12-20T02:23:14.015Z,0.47
2018-12-20T02:25:42.247Z,0.45
2018-12-20T02:28:10.586Z,0.47
2018-12-20T02:30:38.900Z,0.45
2018-12-20T02:33:07.335Z,0.47
2018-12-20T02:35:35.749Z,0.53
2018-12-20T02:38:04.041Z,0.56
2018-12-20T02:40:32.323Z,0.55
2018-12-20T02:43:00.562Z,0.52
2018-12-20T02:45:28.896Z,0.53
2018-12-20T02:47:57.179Z,0.52
2018-12-20T02:50:25.529Z,0.52
2018-12-20T02:52:53.912Z,0.49
2018-12-20T02:55:22.238Z,0.47
2018-12-20T02:57:50.913Z,0.43
2018-12-20T03:00:19.135Z,0.45
2018-12-20T03:02:47.472Z,0.49
2018-12-20T03:05:15.801Z,0.49
2018-12-20T03:07:44.181Z,0.45
2018-12-20T03:10:12.762Z,0.44
2018-12-20T03:12:40.802Z,0.44
2018-12-20T03:15:09.331Z,0.39
2018-12-20T03:17:37.647Z,0.41
2018-12-20T03:20:05.816Z,0.44
2018-12-20T03:22:34.475Z,0.47
2018-12-20T03:25:02.490Z,0.52
2018-12-20T03:27:31.658Z,0.54
2018-12-20T03:29:59.945Z,0.56
2018-12-20T03:32:28.191Z,0.55
2018-12-20T03:34:56.516Z,0.54
2018-12-20T03:37:24.919Z,0.52
2018-12-20T03:39:53.262Z,0.46
2018-12-20T03:42:21.692Z,0.47
2018-12-20T03:44:49.881Z,0.48
2018-12-20T03:47:18.177Z,0.49
2018-12-20T03:49:46.502Z,0.44
2018-12-20T03:52:14.931Z,0.43
2018-12-20T03:54:43.184Z,0.45
2018-12-20T03:57:11.507Z,0.48
2018-12-20T03:59:39.836Z,0.47
2018-12-20T04:02:08.479Z,0.44
2018-12-20T04:04:36.640Z,0.45
2018-12-20T04:07:04.972Z,0.46
2018-12-20T04:09:33.342Z,0.45
2018-12-20T04:12:01.766Z,0.42
2018-12-20T04:14:30.046Z,0.43
2018-12-20T04:16:58.295Z,0.43
2018-12-20T04:19:26.646Z,0.39
2018-12-20T04:21:55.175Z,0.34
2018-12-20T04:24:23.155Z,0.35
2018-12-20T04:26:51.477Z,0.41
2018-12-20T04:29:19.959Z,0.43
2018-12-20T04:31:48.357Z,0.40
2018-12-20T04:34:16.529Z,0.39
2018-12-20T04:36:44.799Z,0.41
2018-12-20T04:39:13.169Z,0.41
2018-12-20T04:41:41.460Z,0.42
2018-12-20T04:44:10.002Z,0.41
2018-12-20T04:46:38.110Z,0.38
2018-12-20T04:49:06.618Z,0.38
2018-12-20T04:51:35.317Z,0.38
2018-12-20T04:54:03.109Z,0.36
2018-12-20T04:56:31.438Z,0.36
2018-12-20T04:58:59.995Z,0.40
2018-12-20T05:01:28.346Z,0.41
2018-12-20T05:03:56.510Z,0.39
2018-12-20T05:06:24.850Z,0.35
2018-12-20T05:08:53.129Z,0.37
2018-12-20T05:11:21.682Z,0.36
2018-12-20T05:13:49.784Z,0.31
2018-12-20T05:16:18.143Z,0.33
2018-12-20T05:18:46.504Z,0.33
2018-12-20T05:21:14.898Z,0.29
2018-12-20T05:23:43.100Z,0.29
2018-12-20T05:26:11.432Z,0.33
2018-12-20T05:28:39.790Z,0.35
2018-12-20T05:31:08.809Z,0.34
2018-12-20T05:33:36.508Z,0.37
2018-12-20T05:36:04.834Z,0.38
2018-12-20T05:38:33.121Z,0.34
2018-12-20T05:41:01.446Z,0.32
2018-12-20T05:43:29.822Z,0.32
2018-12-20T05:46:04.388Z,0.32
2018-12-20T05:48:26.742Z,0.26
2018-12-20T05:50:54.904Z,0.21
2018-12-20T05:53:23.178Z,0.19
2018-12-20T05:55:51.539Z,0.19
2018-12-20T05:58:19.875Z,0.17
2018-12-20T06:00:48.451Z,0.16
2018-12-20T06:03:16.729Z,0.19
2018-12-20T06:05:45.013Z,0.21
2018-12-20T06:08:13.188Z,0.22
2018-12-20T06:10:41.644Z,0.20
2018-12-20T06:13:09.936Z,0.21
2018-12-20T06:15:38.198Z,0.22
2018-12-20T06:18:06.691Z,0.25
2018-12-20T06:20:34.939Z,0.27
2018-12-20T06:23:03.198Z,0.27
2018-12-20T06:25:31.901Z,0.29
2018-12-20T06:28:00.230Z,0.31
2018-12-20T06:30:28.575Z,0.32
2018-12-20T06:32:56.907Z,0.32
2018-12-20T06:35:25.245Z,0.32
2018-12-20T06:37:53.568Z,0.34
2018-12-20T06:40:21.900Z,0.34
2018-12-20T06:42:50.243Z,0.34
2018-12-20T06:45:18.564Z,0.32
2018-12-20T06:47:46.901Z,0.33
2018-12-20T06:50:15.236Z,0.36
2018-12-20T06:52:43.570Z,0.37
2018-12-20T06:55:11.896Z,0.40
2018-12-20T06:57:40.224Z,0.40
2018-12-20T07:00:08.561Z,0.43
2018-12-20T07:02:38.504Z,0.44
2018-12-20T07:05:05.229Z,0.46
2018-12-20T07:07:33.816Z,0.48
2018-12-20T07:10:01.917Z,0.50
2018-12-20T07:12:30.258Z,0.47
2018-12-20T07:14:58.816Z,0.44
2018-12-20T07:17:26.916Z,0.47
2018-12-20T07:19:55.259Z,0.49
2018-12-20T07:22:23.587Z,0.49
2018-12-20T07:24:51.926Z,0.50
2018-12-20T07:27:20.258Z,0.50
2018-12-20T07:29:48.586Z,0.45
2018-12-20T07:32:24.801Z,0.44
2018-12-20T07:34:48.013Z,0.45
2018-12-20T07:37:13.589Z,0.49
2018-12-20T07:39:42.832Z,0.50
2018-12-20T07:42:11.180Z,0.54
2018-12-20T07:44:39.509Z,0.50
2018-12-20T07:47:07.840Z,0.52
2018-12-20T07:49:36.204Z,0.58
2018-12-20T07:52:04.557Z,0.70
2018-12-20T07:54:32.931Z,0.74
2018-12-20T07:57:01.261Z,0.74
2018-12-20T07:59:29.594Z,0.76
2018-12-20T08:01:58.025Z,0.73
2018-12-20T08:04:26.588Z,0.68
2018-12-20T08:06:54.916Z,0.68
2018-12-20T08:09:23.554Z,0.68
2018-12-20T08:11:51.892Z,0.67
2018-12-20T08:14:20.235Z,0.64
2018-12-20T08:16:48.577Z,0.66
2018-12-20T08:19:16.915Z,0.69
2018-12-20T08:21:45.244Z,0.73
2018-12-20T08:24:13.585Z,0.79
2018-12-20T08:26:41.921Z,0.82
2018-12-20T08:29:10.267Z,0.81
2018-12-20T08:31:38.593Z,0.80
2018-12-20T08:34:06.945Z,0.80
2018-12-20T08:36:35.281Z,0.79
2018-12-20T08:39:03.826Z,0.77
2018-12-20T08:41:32.843Z,0.80
2018-12-20T08:44:01.174Z,0.84
2018-12-20T08:46:31.648Z,0.88
2018-12-20T08:48:57.857Z,0.90
2018-12-20T08:51:26.195Z,0.94
2018-12-20T08:53:54.526Z,0.96
2018-12-20T08:56:22.884Z,1.00
2018-12-20T08:58:51.211Z,0.95
2018-12-20T09:01:19.551Z,0.92
2018-12-20T09:03:47.894Z,0.88
2018-12-20T09:06:16.213Z,0.85
2018-12-20T09:08:45.561Z,0.86
2018-12-20T09:11:14.216Z,0.86
2018-12-20T09:13:42.564Z,0.86
2018-12-20T09:16:10.902Z,0.83
2018-12-20T09:18:39.224Z,0.87
2018-12-20T09:21:07.559Z,0.89
2018-12-20T09:23:36.163Z,0.89
2018-12-20T09:26:04.493Z,0.86
2018-12-20T09:28:32.847Z,0.87
2018-12-20T09:31:01.184Z,0.88
2018-12-20T09:33:29.525Z,0.90
2018-12-20T09:35:57.861Z,0.92
2018-12-20T09:38:26.190Z,0.93
2018-12-20T09:40:54.520Z,0.95
2018-12-20T09:43:24.887Z,0.95
2018-12-20T09:45:51.192Z,1.00
2018-12-20T09:48:19.510Z,1.03
2018-12-20T09:50:47.847Z,0.99
2018-12-20T09:53:16.191Z,0.94
2018-12-20T09:55:44.747Z,0.92
2018-12-20T09:58:12.857Z,0.88
2018-12-20T10:00:41.270Z,0.89
2018-12-20T10:03:09.579Z,0.86
2018-12-20T10:05:37.922Z,0.85
2018-12-20T10:08:06.244Z,0.86
2018-12-20T10:10:34.581Z,0.90
2018-12-20T10:13:02.921Z,0.91
2018-12-20T10:15:31.266Z,0.90
2018-12-20T10:17:59.617Z,0.88
2018-12-20T10:20:27.928Z,0.92
2018-12-20T10:22:56.270Z,0.97
2018-12-20T10:25:24.855Z,1.03
2018-12-20T10:27:52.962Z,1.01
2018-12-20T10:30:21.456Z,0.98
2018-12-20T10:32:49.795Z,0.98
2018-12-20T10:35:18.143Z,1.02
2018-12-20T10:37:46.496Z,1.08
2018-12-20T10:40:14.827Z,1.07
2018-12-20T10:42:43.176Z,1.06
2018-12-20T10:45:11.496Z,1.05
2018-12-20T10:47:39.848Z,1.01
2018-12-20T10:50:08.177Z,1.03
2018-12-20T10:52:36.893Z,1.06
2018-12-20T10:55:06.127Z,1.03
2018-12-20T10:57:34.477Z,0.96
2018-12-20T11:00:03.073Z,0.93
2018-12-20T11:02:36.923Z,0.96
2018-12-20T11:05:05.302Z,0.99
2018-12-20T11:07:39.381Z,1.05
2018-12-20T11:10:13.007Z,1.10
2018-12-20T11:12:46.899Z,1.14
2018-12-20T11:15:15.323Z,1.16
2018-12-20T11:17:43.649Z,1.16
2018-12-20T11:20:12.131Z,1.20
2018-12-20T11:22:40.501Z,1.25
2018-12-20T11:25:08.857Z,1.27
2018-12-20T11:27:37.203Z,1.31
2018-12-20T11:30:05.558Z,1.31
2018-12-20T11:32:33.893Z,1.32
2018-12-20T11:35:02.229Z,1.34
2018-12-20T11:37:31.749Z,1.35
2018-12-20T11:39:59.988Z,1.35
2018-12-20T11:42:28.210Z,1.29
2018-12-20T11:44:56.565Z,1.24
2018-12-20T11:47:24.887Z,1.20
2018-12-20T11:49:53.216Z,1.18
2018-12-20T11:52:21.566Z,1.16
2018-12-20T11:54:49.901Z,1.21
2018-12-20T11:57:18.481Z,1.25
2018-12-20T11:59:46.583Z,1.30
2018-12-20T12:02:14.937Z,1.30
2018-12-20T12:04:43.844Z,1.31
2018-12-20T12:07:12.178Z,1.30
2018-12-20T12:09:40.514Z,1.24
2018-12-20T12:12:08.853Z,1.21
2018-12-20T12:14:37.196Z,1.25
2018-12-20T12:17:05.905Z,1.27
2018-12-20T12:19:34.239Z,1.22
2018-12-20T12:22:02.585Z,1.17
2018-12-20T12:24:30.917Z,1.21
2018-12-20T12:26:59.259Z,1.19
2018-12-20T12:29:27.580Z,1.18
2018-12-20T12:31:55.914Z,1.14
2018-12-20T12:34:24.262Z,1.05
2018-12-20T12:36:52.600Z,1.00
2018-12-20T12:39:20.935Z,1.06
2018-12-20T12:41:49.256Z,1.12
2018-12-20T12:44:17.601Z,1.14
2018-12-20T12:46:45.937Z,1.18
2018-12-20T12:49:14.552Z,1.23
2018-12-20T12:51:43.805Z,1.27
2018-12-20T12:54:11.223Z,1.28
2018-12-20T12:56:39.560Z,1.30
2018-12-20T12:59:07.901Z,1.29
2018-12-20T13:01:36.218Z,1.25
2018-12-20T13:04:04.551Z,1.25
2018-12-20T13:06:32.879Z,1.20
2018-12-20T13:09:01.218Z,1.18
2018-12-20T13:11:29.574Z,1.19
2018-12-20T13:13:57.921Z,1.22
2018-12-20T13:16:26.250Z,1.24
2018-12-20T13:18:54.592Z,1.25
2018-12-20T13:21:22.934Z,1.27
2018-12-20T13:23:51.578Z,1.27
2018-12-20T13:26:19.933Z,1.22
2018-12-20T13:28:48.254Z,1.18
2018-12-20T13:31:16.861Z,1.26
2018-12-20T13:33:45.207Z,1.30
2018-12-20T13:36:13.535Z,1.26
2018-12-20T13:38:41.869Z,1.26
2018-12-20T13:41:10.205Z,1.22
2018-12-20T13:43:38.546Z,1.17
2018-12-20T13:46:06.889Z,1.12
2018-12-20T13:48:35.216Z,1.12
2018-12-20T13:51:03.649Z,1.12
2018-12-20T13:53:31.983Z,1.13
2018-12-20T13:56:00.335Z,1.13
2018-12-20T13:58:28.663Z,1.14
2018-12-20T14:00:56.989Z,1.14
2018-12-20T14:03:25.317Z,1.14
2018-12-20T14:05:53.667Z,1.16
2018-12-20T14:08:22.007Z,1.15
2018-12-20T14:10:50.320Z,1.17
2018-12-20T14:13:18.662Z,1.15
2018-12-20T14:15:47.003Z,1.15
2018-12-20T14:18:15.349Z,1.17
2018-12-20T14:20:43.697Z,1.17
2018-12-20T14:23:12.049Z,1.18
2018-12-20T14:25:40.388Z,1.20
2018-12-20T14:28:08.751Z,1.19
2018-12-20T14:30:37.113Z,1.19
2018-12-20T14:33:05.475Z,1.14
2018-12-20T14:35:33.801Z,1.12
2018-12-20T14:38:02.137Z,1.09
2018-12-20T14:40:30.464Z,1.07
2018-12-20T14:42:58.793Z,1.11
2018-12-20T14:45:27.132Z,1.13
2018-12-20T14:47:55.478Z,1.14
2018-12-20T14:50:23.803Z,1.13
2018-12-20T14:52:52.165Z,1.16
2018-12-20T14:55:20.499Z,1.18
2018-12-20T14:57:48.842Z,1.17
2018-12-20T15:00:17.178Z,1.16
2018-12-20T15:02:45.512Z,1.15
2018-12-20T15:05:13.864Z,1.11
2018-12-20T15:07:42.189Z,1.10
2018-12-20T15:10:10.545Z,1.12
2018-12-20T15:12:38.925Z,1.15
2018-12-20T15:15:07.262Z,1.15
2018-12-20T15:17:36.972Z,1.16
2018-12-20T15:20:03.959Z,1.14
2018-12-20T15:22:32.303Z,1.05
2018-12-20T15:25:00.639Z,1.00
2018-12-20T15:27:28.992Z,1.01
2018-12-20T15:29:57.330Z,1.00
2018-12-20T15:32:26.527Z,1.03
2018-12-20T15:34:54.052Z,1.07
2018-12-20T15:37:22.423Z,1.10
2018-12-20T15:39:51.419Z,1.15
2018-12-20T15:42:19.752Z,1.17
2018-12-20T15:44:48.087Z,1.20
2018-12-20T15:47:16.452Z,1.22
2018-12-20T15:49:44.792Z,1.25
2018-12-20T15:52:13.130Z,1.25
2018-12-20T15:54:41.478Z,1.26
2018-12-20T15:57:09.820Z,1.23
2018-12-20T15:59:38.185Z,1.22
2018-12-20T16:02:06.513Z,1.21
2018-12-20T16:04:34.861Z,1.22
2018-12-20T16:07:03.199Z,1.22
2018-12-20T16:09:31.879Z,1.21
2018-12-20T16:12:00.226Z,1.17
2018-12-20T16:14:28.551Z,1.16
2018-12-20T16:16:56.883Z,1.16
2018-12-20T16:19:25.227Z,1.18
2018-12-20T16:21:53.564Z,1.20
2018-12-20T16:24:21.908Z,1.20
2018-12-20T16:26:50.295Z,1.23
2018-12-20T16:29:18.634Z,1.24
2018-12-20T16:31:47.492Z,1.25
2018-12-20T16:34:16.170Z,1.22
2018-12-20T16:36:44.506Z,1.24
2018-12-20T16:39:12.854Z,1.24
2018-12-20T16:41:41.199Z,1.22
2018-12-20T16:44:09.533Z,1.21
2018-12-20T16:46:38.083Z,1.21
2018-12-20T16:49:13.390Z,1.18
2018-12-20T16:51:34.539Z,1.19
2018-12-20T16:54:02.881Z,1.21
2018-12-20T16:56:31.537Z,1.25
2018-12-20T16:58:59.872Z,1.26
2018-12-20T17:01:28.236Z,1.25
2018-12-20T17:03:56.948Z,1.25
2018-12-20T17:06:25.301Z,1.24
2018-12-20T17:08:53.970Z,1.25
2018-12-20T17:11:22.312Z,1.25
2018-12-20T17:13:50.632Z,1.21
2018-12-20T17:16:18.975Z,1.20
2018-12-20T17:18:47.609Z,1.16
2018-12-20T17:21:15.675Z,1.15
2018-12-20T17:23:44.054Z,1.19
2018-12-20T17:26:12.405Z,1.21
2018-12-20T17:28:40.750Z,1.20
2018-12-20T17:31:09.092Z,1.19
2018-12-20T17:33:37.436Z,1.19
2018-12-20T17:36:05.774Z,1.20
2018-12-20T17:38:34.329Z,1.21
2018-12-20T17:41:02.672Z,1.21
2018-12-20T17:43:30.999Z,1.19
2018-12-20T17:45:59.339Z,1.17
2018-12-20T17:48:29.367Z,1.17
2018-12-20T17:50:56.032Z,1.16
2018-12-20T17:53:24.371Z,1.15
2018-12-20T17:55:52.798Z,1.12
2018-12-20T17:58:21.158Z,1.13
2018-12-20T18:00:49.522Z,1.14
2018-12-20T18:03:17.895Z,1.17
2018-12-20T18:05:46.235Z,1.18
2018-12-20T18:08:14.639Z,1.16
2018-12-20T18:10:43.300Z,1.15
2018-12-20T18:13:11.881Z,1.12
2018-12-20T18:15:40.068Z,1.13
2018-12-20T18:18:08.519Z,1.10
2018-12-20T18:20:36.794Z,1.10
2018-12-20T18:23:05.143Z,1.13
2018-12-20T18:25:33.483Z,1.17
2018-12-20T18:28:01.838Z,1.21
2018-12-20T18:30:30.189Z,1.24
2018-12-20T18:32:58.557Z,1.25
2018-12-20T18:35:26.860Z,1.30
2018-12-20T18:37:55.912Z,1.35
2018-12-20T18:40:24.259Z,1.38
2018-12-20T18:42:52.630Z,1.41
2018-12-20T18:45:20.966Z,1.42
2018-12-20T18:47:49.322Z,1.40
2018-12-20T18:50:17.735Z,1.39
2018-12-20T18:52:46.128Z,1.39
2018-12-20T18:55:14.510Z,1.38
2018-12-20T18:57:42.860Z,1.39
2018-12-20T19:00:11.198Z,1.39
2018-12-20T19:02:39.757Z,1.40
2018-12-20T19:05:07.861Z,1.41
2018-12-20T19:07:36.250Z,1.41
2018-12-20T19:10:05.549Z,1.40
2018-12-20T19:12:33.895Z,1.39
2018-12-20T19:15:02.236Z,1.40
2018-12-20T19:17:30.576Z,1.37
2018-12-20T19:19:58.925Z,1.39
2018-12-20T19:22:27.273Z,1.40
2018-12-20T19:24:55.622Z,1.39
2018-12-20T19:27:23.973Z,1.38
2018-12-20T19:29:52.315Z,1.39
2018-12-20T19:32:21.311Z,1.39
2018-12-20T19:34:49.654Z,1.41
2018-12-20T19:37:18.398Z,1.43
2018-12-20T19:39:46.727Z,1.43
2018-12-20T19:42:15.088Z,1.44
2018-12-20T19:44:43.402Z,1.46
2018-12-20T19:47:11.912Z,1.46
2018-12-20T19:49:40.508Z,1.47
2018-12-20T19:52:09.428Z,1.47
2018-12-20T19:54:37.870Z,1.47
2018-12-20T19:57:06.199Z,1.48
2018-12-20T19:59:38.592Z,1.47
2018-12-20T20:02:04.742Z,1.48
2018-12-20T20:04:31.244Z,1.47
2018-12-20T20:06:59.615Z,1.46
2018-12-20T20:09:28.217Z,1.45
2018-12-20T20:11:56.341Z,1.46
2018-12-20T20:14:24.701Z,1.45
2018-12-20T20:16:53.043Z,1.47
2018-12-20T20:19:21.395Z,1.49
2018-12-20T20:21:49.752Z,1.52
2018-12-20T20:24:18.151Z,1.52
2018-12-20T20:26:46.515Z,1.53
2018-12-20T20:29:14.839Z,1.52
2018-12-20T20:31:43.186Z,1.50
2018-12-20T20:34:11.827Z,1.50
2018-12-20T20:36:40.193Z,1.51
2018-12-20T20:39:08.685Z,1.48
2018-12-20T20:41:37.023Z,1.48
2018-12-20T20:44:05.384Z,1.47
2018-12-20T20:46:33.722Z,1.47
2018-12-20T20:49:02.059Z,1.44
2018-12-20T20:51:30.730Z,1.42
2018-12-20T20:53:59.093Z,1.43
2018-12-20T20:56:27.422Z,1.47
2018-12-20T20:58:55.768Z,1.48
2018-12-20T21:01:24.122Z,1.48
2018-12-20T21:03:52.468Z,1.48
2018-12-20T21:06:21.712Z,1.49
2018-12-20T21:08:50.115Z,1.50
2018-12-20T21:11:18.467Z,1.51
2018-12-20T21:13:46.812Z,1.53
2018-12-20T21:16:15.174Z,1.52
2018-12-20T21:18:43.493Z,1.54
2018-12-20T21:21:11.837Z,1.56
2018-12-20T21:23:40.194Z,1.55
2018-12-20T21:26:08.541Z,1.56
2018-12-20T21:28:36.879Z,1.57
2018-12-20T21:31:05.538Z,1.58
2018-12-20T21:33:34.215Z,1.55
2018-12-20T21:36:02.557Z,1.52
2018-12-20T21:38:30.906Z,1.49
2018-12-20T21:40:59.246Z,1.49
2018-12-20T21:43:27.587Z,1.51
2018-12-20T21:45:55.927Z,1.53
2018-12-20T21:48:24.268Z,1.53
2018-12-20T22:08:49.572Z,1.53
2018-12-20T22:11:17.920Z,1.53
2018-12-20T22:13:46.256Z,1.54
2018-12-20T22:16:14.688Z,1.56
2018-12-20T22:18:43.138Z,1.57
2018-12-20T22:21:11.492Z,1.58
2018-12-20T22:23:39.847Z,1.57
2018-12-20T22:26:08.249Z,1.58
2018-12-20T22:28:36.598Z,1.59
2018-12-20T22:31:04.960Z,1.60
2018-12-20T22:33:33.289Z,1.61
2018-12-20T22:36:01.689Z,1.62
2018-12-20T22:38:30.035Z,1.63
2018-12-20T22:40:58.371Z,1.62
2018-12-20T22:43:26.701Z,1.64
2018-12-20T22:45:55.278Z,1.65
2018-12-20T22:48:23.407Z,1.65
2018-12-20T22:50:55.915Z,1.69
2018-12-20T22:53:20.072Z,1.68
2018-12-20T22:55:48.400Z,1.66
2018-12-20T22:58:16.751Z,1.64
2018-12-20T23:00:45.086Z,1.62
2018-12-20T23:03:13.686Z,1.61
2018-12-20T23:05:41.818Z,1.60
2018-12-20T23:08:10.183Z,1.60
2018-12-20T23:10:38.516Z,1.62
2018-12-20T23:13:06.847Z,1.65
2018-12-20T23:15:35.206Z,1.67
2018-12-20T23:18:03.574Z,1.69
2018-12-20T23:20:31.926Z,1.71
2018-12-20T23:23:00.262Z,1.70
2018-12-20T23:25:28.584Z,1.71
2018-12-20T23:27:56.919Z,1.71
2018-12-20T23:30:26.279Z,1.72
2018-12-20T23:32:54.624Z,1.71
2018-12-20T23:35:22.967Z,1.71
2018-12-20T23:37:51.308Z,1.70
2018-12-20T23:40:19.647Z,1.70
2018-12-20T23:42:48.017Z,1.73
2018-12-20T23:45:16.344Z,1.74
2018-12-20T23:47:44.672Z,1.78
2018-12-20T23:50:13.012Z,1.80
2018-12-20T23:52:41.361Z,1.79
2018-12-20T23:55:09.702Z,1.78
2018-12-20T23:57:38.054Z,1.80
